Data for 09/14/2008

Time Sea-Level Adjusted Pressure Absolute Pressure Temperature Relative Humidity Dew Point   
(mb) (inHg) (mb) (inHg) (C) (F) (%) (C) (F)
00:05 1024 30.24 853 25.19 5.6 42.1 75 1.5 34.7
00:10 1024 30.24 853 25.19 5.6 42.1 74 1.4 34.5
00:15 1024 30.24 853 25.19 5.7 42.2 75 1.5 34.8
00:20 1024 30.24 853 25.19 5.6 42.1 74 1.3 34.3
00:25 1024 30.24 853 25.19 5.7 42.2 73 1.2 34.2
00:30 1024 30.24 853 25.19 5.8 42.4 73 1.2 34.2
00:35 1024 30.24 853 25.19 5.9 42.7 72 1.2 34.2
00:40 1024 30.24 853 25.19 6 42.8 72 1.4 34.5
00:45 1024 30.24 853 25.19 6 42.8 73 1.5 34.7
00:50 1024 30.24 853 25.19 6 42.8 73 1.5 34.7
00:55 1024 30.24 853 25.19 6 42.7 72 1.4 34.5
01:00 1024 30.24 853 25.19 5.8 42.5 73 1.4 34.5
01:05 1024 30.24 853 25.19 5.8 42.4 72 1.2 34.1
01:10 1024 30.24 853 25.19 5.7 42.3 71 0.9 33.7
01:15 1024 30.24 853 25.19 5.8 42.5 73 1.3 34.3
01:20 1024 30.24 853 25.19 5.8 42.4 73 1.3 34.3
01:25 1024 30.24 853 25.19 5.9 42.6 72 1.2 34.2
01:30 1024 30.24 853 25.19 5.9 42.7 72 1.4 34.4
01:35 1024 30.24 853 25.19 5.9 42.6 72 1.2 34.2
01:40 1024 30.24 853 25.19 5.7 42.3 71 1 33.7
01:45 1024 30.24 853 25.19 5.6 42 72 1 33.7
01:50 1024 30.24 853 25.19 5.6 42.1 71 0.8 33.5
01:55 1024 30.24 853 25.19 5.7 42.2 70 0.6 33.2
02:00 1024 30.24 854 25.22 5.8 42.4 69 0.5 32.9
02:05 1024 30.24 854 25.22 5.6 42.2 70 0.7 33.2
02:10 1024 30.24 854 25.22 5.8 42.4 68 0.3 32.5
02:15 1024 30.24 854 25.22 5.5 42 68 0.1 32.2
02:20 1024 30.24 854 25.22 5.4 41.8 69 0.1 32.2
02:25 1024 30.24 854 25.22 5.3 41.5 69 -0 32
02:30 1024 30.24 854 25.22 5.2 41.3 67 -0.4 31.3
02:35 1024 30.24 853 25.19 5 41.1 66 -0.8 30.6
02:40 1024 30.24 853 25.19 4.7 40.4 66 -1.2 29.8
02:45 1024 30.24 853 25.19 4.6 40.2 65 -1.5 29.3
02:50 1024 30.24 853 25.19 4.6 40.2 65 -1.5 29.4
02:55 1024 30.24 853 25.19 4.7 40.4 64 -1.5 29.3
03:00 1024 30.24 853 25.19 5.2 41.3 63 -1.2 29.8
03:05 1024 30.24 853 25.19 5.1 41.2 64 -1.2 29.9
03:10 1024 30.24 853 25.19 4.9 40.8 64 -1.3 29.7
03:15 1024 30.24 853 25.19 4.6 40.2 66 -1.3 29.7
03:20 1024 30.24 853 25.19 4.3 39.7 67 -1.4 29.5
03:25 1024 30.24 853 25.19 4.5 40 66 -1.3 29.6
03:30 1024 30.24 853 25.19 4.6 40.2 66 -1.2 29.9
03:35 1024 30.24 853 25.19 4.6 40.2 68 -0.9 30.4
03:40 1024 30.24 853 25.19 4.2 39.5 68 -1.3 29.7
03:45 1024 30.24 853 25.19 4 39.3 69 -1.2 29.9
03:50 1024 30.24 853 25.19 4.2 39.6 68 -1.1 30
03:55 1024 30.24 853 25.19 4.1 39.4 71 -0.8 30.6
04:00 1024 30.24 853 25.19 3.7 38.7 72 -0.8 30.6
04:05 1024 30.24 853 25.19 3.7 38.7 73 -0.8 30.6
04:10 1024 30.24 853 25.19 3.7 38.7 73 -0.7 30.7
04:15 1024 30.24 853 25.19 3.7 38.6 73 -0.8 30.6
04:20 1024 30.24 853 25.19 3.6 38.5 74 -0.6 30.9
04:25 1024 30.24 853 25.19 4.1 39.3 70 -0.9 30.4
04:30 1024 30.24 853 25.19 4.2 39.6 68 -1.2 29.9
04:35 1024 30.24 853 25.19 4.1 39.4 68 -1.2 29.9
04:40 1024 30.24 853 25.19 4.1 39.4 67 -1.4 29.4
04:45 1024 30.24 853 25.19 4.4 40 66 -1.3 29.6
04:50 1024 30.24 853 25.19 4.4 39.9 68 -1.1 30
04:55 1024 30.24 853 25.19 4.1 39.4 69 -1.1 30
05:00 1024 30.24 853 25.19 3.7 38.7 70 -1.3 29.7
05:05 1024 30.24 854 25.22 3.9 39 68 -1.5 29.4
05:10 1024 30.24 854 25.22 4 39.3 69 -1.2 29.8
05:15 1024 30.24 854 25.22 4.2 39.5 69 -0.9 30.3
05:20 1024 30.24 854 25.22 3.9 39.1 70 -1 30.2
05:25 1024 30.24 854 25.22 3.6 38.4 70 -1.3 29.6
05:30 1024 30.24 854 25.22 3.5 38.2 70 -1.4 29.5
05:35 1024 30.24 854 25.22 3.5 38.3 70 -1.5 29.3
05:40 1024 30.24 854 25.22 3.5 38.3 71 -1.2 29.8
05:45 1024 30.24 854 25.22 3.7 38.6 71 -1.1 30
05:50 1024 30.24 854 25.22 3.6 38.4 71 -1.1 30
05:55 1024 30.24 854 25.22 3.5 38.3 71 -1.2 29.8
06:00 1024 30.24 854 25.22 3.5 38.3 71 -1.2 29.8
06:05 1024 30.24 854 25.22 3.5 38.2 70 -1.4 29.5
06:10 1024 30.24 854 25.22 3.7 38.7 70 -1.3 29.7
06:15 1024 30.24 854 25.22 3.9 39.1 71 -0.9 30.3
06:20 1024 30.24 854 25.22 3.9 39.1 71 -0.8 30.6
06:25 1024 30.24 854 25.22 3.8 38.9 71 -0.9 30.4
06:30 1024 30.24 854 25.22 3.8 38.8 72 -0.9 30.4
06:35 1024 30.24 854 25.22 3.6 38.5 72 -0.9 30.4
06:40 1024 30.24 854 25.22 3.5 38.3 73 -0.9 30.4
06:45 1024 30.24 854 25.22 3.3 37.9 74 -1 30.2
06:50 1024 30.24 854 25.22 3.1 37.6 73 -1.2 29.9
06:55 1024 30.24 854 25.22 3 37.4 74 -1.3 29.7
07:00 1025 30.27 854 25.22 3 37.3 74 -1.2 29.8
07:05 1025 30.27 854 25.22 3.2 37.8 74 -1 30.1
07:10 1025 30.27 854 25.22 3.3 38 74 -0.9 30.4
07:15 1025 30.27 854 25.22 3.3 38 75 -0.8 30.6
07:20 1025 30.27 854 25.22 3.4 38.1 73 -0.9 30.3
07:25 1025 30.27 854 25.22 3.3 38 75 -0.6 30.8
07:30 1025 30.27 854 25.22 3.2 37.7 75 -0.7 30.7
07:35 1025 30.27 854 25.22 3.3 37.9 75 -0.7 30.7
07:40 1025 30.27 854 25.22 3.5 38.4 73 -0.8 30.6
07:45 1025 30.27 854 25.22 3.9 39 72 -0.8 30.6
07:50 1025 30.27 854 25.22 4.1 39.3 71 -0.7 30.7
07:55 1025 30.27 854 25.22 4.3 39.7 70 -0.6 30.9
08:00 1025 30.27 854 25.22 4.6 40.3 69 -0.6 31
08:05 1025 30.27 854 25.22 4.9 40.8 68 -0.5 31.1
08:10 1025 30.27 854 25.22 5.1 41.2 68 -0.4 31.3
08:15 1025 30.27 854 25.22 5.3 41.5 68 -0.2 31.7
08:20 1025 30.27 854 25.22 5.5 41.8 66 -0.3 31.5
08:25 1025 30.27 854 25.22 5.9 42.6 64 -0.3 31.4
08:30 1025 30.27 854 25.22 6.3 43.4 64 0 32
08:35 1025 30.27 854 25.22 6.8 44.2 63 0.2 32.4
08:40 1025 30.27 854 25.22 7.1 44.8 62 0.5 32.8
08:45 1025 30.27 854 25.22 7.4 45.2 62 0.6 33.1
08:50 1025 30.27 854 25.22 7.9 46.2 60 0.5 32.9
08:55 1025 30.27 854 25.22 8.2 46.8 59 0.8 33.4
09:00 1025 30.27 855 25.25 9.1 48.5 55 0.6 33
09:05 1025 30.27 855 25.25 9.4 49 54 0.6 33.1
09:10 1025 30.27 855 25.25 9.4 49 54 0.6 33
09:15 1025 30.27 855 25.25 9.5 49.1 54 0.6 33
09:20 1025 30.27 855 25.25 10.2 50.4 49 0.1 32.3
09:25 1025 30.27 855 25.25 10.7 51.3 49 0.6 33.1
09:30 1025 30.27 855 25.25 10.9 51.6 50 0.9 33.6
09:35 1025 30.27 855 25.25 10.7 51.3 51 0.9 33.6
09:40 1025 30.27 855 25.25 10.9 51.6 51 1.1 34
09:45 1025 30.27 855 25.25 11.5 52.7 45 0.1 32.1
09:50 1025 30.27 855 25.25 12.1 53.9 44 0.2 32.3
09:55 1025 30.27 855 25.25 12.3 54.2 45 1 33.7
10:00 1025 30.27 855 25.25 12.2 54 48 1.5 34.7
10:05 1025 30.27 855 25.25 12 53.5 45 0.5 32.9
10:10 1025 30.27 855 25.25 12.7 54.9 43 0.6 33
10:15 1025 30.27 855 25.25 11.8 53.2 48 1.2 34.2
10:20 1025 30.27 855 25.25 12.1 53.7 46 0.7 33.3
10:25 1025 30.27 855 25.25 13.1 55.6 42 0.6 33
10:30 1026 30.3 855 25.25 13.6 56.5 42 1.1 34.1
10:35 1026 30.3 855 25.25 13.8 56.9 39 0.3 32.5
10:40 1026 30.3 855 25.25 13 55.3 42 0.3 32.5
10:45 1026 30.3 855 25.25 13.1 55.6 42 0.6 33
10:50 1026 30.3 855 25.25 13.3 56 43 1.1 33.9
10:55 1026 30.3 855 25.25 13.3 55.9 39 -0.2 31.7
11:00 1026 30.3 855 25.25 13.7 56.6 42 1.1 34
11:05 1026 30.3 855 25.25 13.1 55.5 43 0.9 33.6
11:10 1026 30.3 855 25.25 12.8 55 44 0.8 33.5
11:15 1026 30.3 855 25.25 13.6 56.5 42 1 33.8
11:20 1026 30.3 855 25.25 14.4 58 40 1.1 34
11:25 1026 30.3 855 25.25 15 59 39 1.2 34.1
11:30 1026 30.3 855 25.25 15.3 59.5 38 1.3 34.3
11:35 1026 30.3 855 25.25 15.6 60 38 1.5 34.6
11:40 1026 30.3 855 25.25 15.3 59.5 40 1.7 35
11:45 1026 30.3 855 25.25 15.2 59.3 39 1.3 34.3
11:50 1026 30.3 855 25.25 15.6 60.2 39 1.9 35.5
11:55 1026 30.3 855 25.25 15.8 60.5 38 1.8 35.2
12:00 1026 30.3 855 25.25 16.4 61.6 36 1.5 34.7
12:05 1026 30.3 855 25.25 16.6 61.8 36 1.7 35.1
12:10 1026 30.3 855 25.25 16.7 62 36 1.7 35.1
12:15 1026 30.3 855 25.25 16.9 62.4 34 1 33.8
12:20 1026 30.3 855 25.25 17.5 63.6 33 1.4 34.5
12:25 1026 30.3 855 25.25 18 64.5 34 1.9 35.5
12:30 1026 30.3 855 25.25 17.3 63.2 34 1.6 34.9
12:35 1026 30.3 855 25.25 17.6 63.6 33 1.4 34.5
12:40 1026 30.3 855 25.25 17.5 63.5 34 1.5 34.8
12:45 1025 30.27 855 25.25 17.5 63.6 34 1.8 35.2
12:50 1025 30.27 855 25.25 17.9 64.3 31 0.8 33.5
12:55 1025 30.27 855 25.25 18.6 65.5 30 1 33.8
13:00 1025 30.27 855 25.25 18.7 65.6 31 1.3 34.4
13:05 1025 30.27 855 25.25 18.5 65.3 31 1.2 34.2
13:10 1025 30.27 855 25.25 18.7 65.7 31 1.4 34.5
13:15 1025 30.27 855 25.25 19 66.2 30 1.3 34.4
13:20 1025 30.27 855 25.25 19.1 66.3 31 1.8 35.2
13:25 1025 30.27 855 25.25 19.3 66.7 31 1.8 35.3
13:30 1025 30.27 855 25.25 19.1 66.4 31 1.5 34.8
13:35 1025 30.27 854 25.22 19.2 66.6 31 1.7 35
13:40 1025 30.27 854 25.22 19.8 67.7 29 1.6 34.9
13:45 1025 30.27 854 25.22 20.6 69 29 2 35.6
13:50 1025 30.27 854 25.22 20.4 68.7 28 1.5 34.7
13:55 1025 30.27 854 25.22 19.8 67.6 29 1.6 34.9
14:00 1025 30.27 854 25.22 19.4 66.9 30 1.4 34.5
14:05 1025 30.27 854 25.22 20.4 68.7 29 2.1 35.9
14:10 1025 30.27 854 25.22 20.6 69.1 28 1.8 35.2
14:15 1025 30.27 854 25.22 20.9 69.5 27 1.3 34.4
14:20 1025 30.27 854 25.22 20.1 68.1 29 1.9 35.3
14:25 1025 30.27 854 25.22 19.9 67.7 31 2.3 36.1
14:30 1025 30.27 854 25.22 19.9 67.8 28 0.8 33.5
14:35 1025 30.27 854 25.22 20.3 68.6 27 1.1 34
14:40 1025 30.27 854 25.22 20.7 69.2 24 -0.2 31.6
14:45 1025 30.27 854 25.22 21 69.8 22 -1.3 29.6
14:50 1025 30.27 854 25.22 21.4 70.5 22 -1.1 30.1
14:55 1025 30.27 854 25.22 21.6 70.9 21 -1.2 29.9
15:00 1025 30.27 854 25.22 21.2 70.1 21 -1.7 29
15:05 1025 30.27 854 25.22 21 69.8 22 -1.3 29.7
15:10 1025 30.27 854 25.22 21.5 70.7 22 -0.7 30.8
15:15 1025 30.27 854 25.22 21.8 71.2 21 -1.6 29.1
15:20 1025 30.27 854 25.22 22 71.5 19 -2.6 27.3
15:25 1025 30.27 854 25.22 21.5 70.7 19 -2.6 27.3
15:30 1025 30.27 854 25.22 21 69.8 19 -3.1 26.4
15:35 1025 30.27 854 25.22 21.4 70.6 19 -2.9 26.9
15:40 1025 30.27 854 25.22 21.8 71.2 19 -2.9 26.7
15:45 1025 30.27 854 25.22 21.8 71.2 19 -2.9 26.7
15:50 1025 30.27 854 25.22 21.7 71 19 -2.6 27.3
15:55 1025 30.27 854 25.22 21.7 71 20 -1.8 28.7
16:00 1025 30.27 854 25.22 21.8 71.3 20 -2.1 28.1
16:05 1025 30.27 854 25.22 22.1 71.9 20 -1.7 28.9
16:10 1025 30.27 854 25.22 22.7 72.8 19 -1.8 28.8
16:15 1025 30.27 854 25.22 22.4 72.3 20 -1.7 29
16:20 1025 30.27 854 25.22 21.6 70.9 20 -1.9 28.6
16:25 1025 30.27 854 25.22 21.6 70.8 21 -1.8 28.7
16:30 1025 30.27 854 25.22 21.3 70.4 21 -1.7 29
16:35 1025 30.27 854 25.22 21.8 71.2 21 -1.6 29.1
16:40 1025 30.27 854 25.22 22.2 72 20 -1.3 29.6
16:45 1025 30.27 854 25.22 22.4 72.4 20 -1.4 29.5
16:50 1025 30.27 854 25.22 22.5 72.5 21 -0.5 31.1
16:55 1025 30.27 854 25.22 22.3 72.1 21 -0.9 30.4
17:00 1025 30.27 854 25.22 22.3 72.2 20 -1.3 29.7
17:05 1025 30.27 854 25.22 22.6 72.6 20 -1.1 30.1
17:10 1025 30.27 854 25.22 22.5 72.6 21 -0.4 31.3
17:15 1025 30.27 854 25.22 22.4 72.4 21 -0.9 30.3
17:20 1025 30.27 854 25.22 22.3 72.2 21 -0.6 30.9
17:25 1025 30.27 854 25.22 22.2 71.9 21 -0.8 30.6
17:30 1025 30.27 854 25.22 22 71.6 22 -0.6 30.9
17:35 1025 30.27 854 25.22 21.6 70.8 21 -1.2 29.8
17:40 1025 30.27 854 25.22 21.6 70.8 22 -0.7 30.7
17:45 1025 30.27 854 25.22 21.7 71.1 22 -0.8 30.6
17:50 1025 30.27 854 25.22 22.1 71.7 21 -1 30.2
17:55 1025 30.27 854 25.22 22.3 72.1 21 -1.1 30
18:00 1025 30.27 854 25.22 22.5 72.6 21 -1 30.2
18:05 1025 30.27 854 25.22 22.5 72.5 21 -0.9 30.5
18:10 1025 30.27 854 25.22 22.1 71.8 22 -0.6 30.9
18:15 1025 30.27 854 25.22 21.9 71.5 21 -1 30.2
18:20 1025 30.27 854 25.22 21.6 70.8 22 -0.8 30.5
18:25 1025 30.27 854 25.22 21.3 70.3 23 -0.5 31
18:30 1025 30.27 854 25.22 20.9 69.7 24 -0.4 31.2
18:35 1024 30.24 854 25.22 20.5 68.9 25 -0.2 31.6
18:40 1024 30.24 854 25.22 20.2 68.4 24 -0.7 30.8
18:45 1025 30.27 854 25.22 20 68.1 24 -0.9 30.4
18:50 1025 30.27 854 25.22 19.9 67.9 24 -0.9 30.4
18:55 1024 30.24 854 25.22 19.8 67.6 25 -0.7 30.7
19:00 1024 30.24 854 25.22 19.7 67.5 26 -0.1 31.8
19:05 1024 30.24 854 25.22 19.6 67.2 26 -0.4 31.2
19:10 1024 30.24 854 25.22 19.5 67.1 27 -0.1 31.9
19:15 1024 30.24 854 25.22 19.4 66.9 28 0.6 33.1
19:20 1025 30.27 854 25.22 19.2 66.6 30 1.3 34.3
19:25 1025 30.27 854 25.22 18.8 65.8 35 2.9 37.3
19:30 1025 30.27 854 25.22 17.9 64.3 35 2.4 36.3
19:35 1025 30.27 854 25.22 17.6 63.7 35 2.2 36
19:40 1025 30.27 854 25.22 17.3 63.2 41 4.1 39.4
19:45 1025 30.27 854 25.22 16.6 61.9 38 2.2 35.9
19:50 1025 30.27 854 25.22 16 60.7 39 2.1 35.8
19:55 1025 30.27 854 25.22 15.5 59.9 41 2.3 36.1
20:00 1025 30.27 854 25.22 15.2 59.3 42 2.3 36.1
20:05 1025 30.27 854 25.22 14.8 58.7 44 2.7 36.9
20:10 1025 30.27 854 25.22 14 57.1 47 3.1 37.5
20:15 1025 30.27 854 25.22 13.4 56.2 50 3.2 37.7
20:20 1025 30.27 854 25.22 13.2 55.8 50 2.9 37.3
20:25 1025 30.27 854 25.22 13.3 55.9 45 1.8 35.2
20:30 1025 30.27 854 25.22 13.8 56.8 47 2.8 37
20:35 1025 30.27 854 25.22 13.7 56.6 42 1.2 34.2
20:40 1025 30.27 854 25.22 14.3 57.7 39 0.7 33.3
20:45 1025 30.27 854 25.22 14.3 57.7 42 1.5 34.8
20:50 1025 30.27 854 25.22 13.9 56.9 44 1.8 35.2
20:55 1025 30.27 854 25.22 13.5 56.2 44 1.4 34.5
21:00 1025 30.27 854 25.22 13.6 56.6 39 0 32.1
21:05 1025 30.27 854 25.22 14.2 57.5 40 0.9 33.7
21:10 1025 30.27 854 25.22 14 57.3 40 0.7 33.3
21:15 1025 30.27 854 25.22 14 57.3 40 0.8 33.4
21:20 1025 30.27 854 25.22 13.9 57 41 1 33.8
21:25 1025 30.27 854 25.22 13.4 56.1 43 1.2 34.2
21:30 1025 30.27 854 25.22 13 55.4 43 0.8 33.4
21:35 1025 30.27 854 25.22 13.1 55.5 43 0.7 33.3
21:40 1025 30.27 854 25.22 13.1 55.6 43 0.8 33.5
21:45 1025 30.27 854 25.22 13.1 55.5 42 0.6 33.1
21:50 1025 30.27 855 25.25 13.1 55.6 43 0.9 33.7
21:55 1025 30.27 855 25.25 12.8 55.1 45 1.1 34
22:00 1025 30.27 855 25.25 12.4 54.4 46 1.2 34.2
22:05 1025 30.27 855 25.25 12.1 53.7 47 1.1 33.9
22:10 1025 30.27 855 25.25 12 53.7 46 0.8 33.5
22:15 1025 30.27 855 25.25 12.2 54 45 0.6 33
22:20 1025 30.27 855 25.25 12.6 54.6 44 0.6 33.1
22:25 1025 30.27 855 25.25 12.7 54.8 44 0.9 33.6
22:30 1025 30.27 855 25.25 12.7 54.8 44 0.7 33.3
22:35 1025 30.27 855 25.25 12.5 54.4 45 1 33.7
22:40 1025 30.27 855 25.25 12.1 53.8 46 1 33.8
22:45 1025 30.27 855 25.25 11.9 53.3 46 0.8 33.4
22:50 1025 30.27 855 25.25 12.1 53.8 45 0.5 32.9
22:55 1025 30.27 855 25.25 12.2 53.9 45 0.7 33.3
23:00 1025 30.27 855 25.25 12 53.7 46 0.7 33.3
23:05 1025 30.27 855 25.25 12 53.7 45 0.6 33.2
23:10 1025 30.27 855 25.25 12.2 53.9 45 0.7 33.2
23:15 1025 30.27 855 25.25 12.1 53.7 45 0.6 33.2
23:20 1026 30.3 855 25.25 11.9 53.5 46 0.8 33.5
23:25 1025 30.27 855 25.25 11.9 53.4 47 0.9 33.7
23:30 1026 30.3 855 25.25 11.8 53.3 47 0.9 33.5
23:35 1026 30.3 855 25.25 11.7 53.1 47 1 33.7
23:40 1026 30.3 855 25.25 11.6 52.8 48 0.9 33.6
23:45 1025 30.27 855 25.25 11.6 52.8 47 0.6 33.2
23:50 1025 30.27 855 25.25 11.7 53.1 47 0.8 33.4
23:55 1026 30.3 855 25.25 11.8 53.3 45 0.5 32.8
24:00 1026 30.3 855 25.25 12.1 53.8 45 0.5 33